Time;durP1;ratioP1;P1;durP2;ratioP2;P2;SDS_P1;SDS_P2;PMS_P1;PMS_P2;Temp;Humidity;BMP_temperature;BMP_pressure;BME280_temperature;BME280_humidity;BME280_pressure;Samples;Min_cycle;Max_cycle;Signal;HPM_P1;HPM_P2
2023/12/16 00:01:23;;;;;;;11.52;2.88;;;;;;;;;;5078816;28;20048;-78
2023/12/16 00:03:49;;;;;;;10.90;2.35;;;;;;;;;;5078843;28;20052;-77
2023/12/16 00:06:19;;;;;;;9.95;2.22;;;;;;;;;;5095580;28;20121;-78
2023/12/16 00:08:46;;;;;;;9.98;2.20;;;;;;;;;;5080130;28;20055;-77
2023/12/16 00:11:13;;;;;;;9.10;2.45;;;;;;;;;;5095274;28;20048;-77
2023/12/16 00:13:39;;;;;;;12.18;2.17;;;;;;;;;;5096418;28;20118;-77
2023/12/16 00:16:05;;;;;;;9.02;2.47;;;;;;;;;;5095167;28;20120;-77
2023/12/16 00:18:32;;;;;;;10.13;2.40;;;;;;;;;;5096319;28;20485;-77
2023/12/16 00:20:58;;;;;;;11.40;2.80;;;;;;;;;;5078929;28;20138;-78
2023/12/16 00:23:24;;;;;;;13.30;2.78;;;;;;;;;;5095569;28;20047;-77
2023/12/16 00:25:50;;;;;;;12.50;2.40;;;;;;;;;;5095987;28;20056;-78
2023/12/16 00:28:18;;;;;;;10.18;2.20;;;;;;;;;;5095943;28;20048;-77
2023/12/16 00:30:44;;;;;;;11.65;2.72;;;;;;;;;;5095020;28;20503;-77
2023/12/16 00:33:11;;;;;;;14.55;2.50;;;;;;;;;;5095064;28;20551;-77
2023/12/16 00:35:37;;;;;;;14.05;2.75;;;;;;;;;;5078153;28;20087;-77
2023/12/16 00:38:03;;;;;;;9.40;2.78;;;;;;;;;;5095052;28;20093;-77
2023/12/16 00:40:29;;;;;;;11.18;2.58;;;;;;;;;;5077910;28;20054;-77
2023/12/16 00:42:55;;;;;;;9.02;2.38;;;;;;;;;;5094776;28;20047;-77
2023/12/16 00:45:21;;;;;;;11.82;2.72;;;;;;;;;;5094881;28;20134;-77
2023/12/16 00:47:47;;;;;;;12.20;2.50;;;;;;;;;;5094759;28;20050;-77
2023/12/16 00:50:13;;;;;;;10.40;3.20;;;;;;;;;;5095641;28;20076;-78
2023/12/16 00:52:39;;;;;;;9.13;2.50;;;;;;;;;;5094115;28;20060;-77
2023/12/16 00:55:06;;;;;;;10.82;2.70;;;;;;;;;;5094609;28;20036;-77
2023/12/16 00:57:32;;;;;;;14.27;2.83;;;;;;;;;;5094568;28;20044;-77
2023/12/16 00:59:58;;;;;;;11.35;2.97;;;;;;;;;;5095336;28;20137;-77
2023/12/16 01:02:24;;;;;;;12.85;2.88;;;;;;;;;;5095501;28;20044;-77
2023/12/16 01:04:51;;;;;;;8.98;2.03;;;;;;;;;;5095465;28;20126;-77
2023/12/16 01:07:17;;;;;;;11.90;2.58;;;;;;;;;;5094519;28;20048;-78
2023/12/16 01:09:43;;;;;;;13.32;2.38;;;;;;;;;;5094565;28;20098;-77
2023/12/16 01:12:09;;;;;;;9.85;1.92;;;;;;;;;;5094008;28;20055;-77
2023/12/16 01:14:35;;;;;;;11.27;1.75;;;;;;;;;;5077371;28;20055;-77
2023/12/16 01:17:02;;;;;;;11.10;2.13;;;;;;;;;;5094351;28;20108;-78
2023/12/16 01:19:28;;;;;;;10.02;2.10;;;;;;;;;;5094101;28;20056;-78
2023/12/16 01:21:54;;;;;;;9.25;2.10;;;;;;;;;;5094094;28;20069;-77
2023/12/16 01:24:21;;;;;;;9.88;2.08;;;;;;;;;;5094004;28;20040;-77
2023/12/16 01:26:47;;;;;;;6.78;2.03;;;;;;;;;;5077472;28;20035;-77
2023/12/16 01:29:13;;;;;;;10.10;2.17;;;;;;;;;;5093653;28;20056;-77
2023/12/16 01:31:39;;;;;;;8.07;1.75;;;;;;;;;;5093786;28;20048;-77
2023/12/16 01:34:05;;;;;;;10.25;1.75;;;;;;;;;;5094115;28;20048;-77
2023/12/16 01:36:32;;;;;;;9.85;1.70;;;;;;;;;;5076667;28;20051;-77
2023/12/16 01:38:58;;;;;;;10.23;1.95;;;;;;;;;;5093736;28;20040;-77
2023/12/16 01:41:24;;;;;;;12.30;2.15;;;;;;;;;;5093657;28;20387;-77
2023/12/16 01:43:51;;;;;;;7.50;1.48;;;;;;;;;;5094465;28;20040;-78
2023/12/16 01:46:17;;;;;;;9.63;2.03;;;;;;;;;;5094469;28;20055;-77
2023/12/16 01:48:43;;;;;;;9.63;2.05;;;;;;;;;;5094607;28;20070;-77
2023/12/16 01:51:10;;;;;;;9.32;2.10;;;;;;;;;;5095807;28;20044;-77
2023/12/16 01:53:36;;;;;;;12.20;1.73;;;;;;;;;;5097676;28;20504;-77
2023/12/16 01:56:02;;;;;;;12.63;2.30;;;;;;;;;;5097595;28;20048;-77
2023/12/16 01:58:28;;;;;;;9.18;1.35;;;;;;;;;;5096803;28;20391;-77
2023/12/16 02:00:54;;;;;;;6.28;1.42;;;;;;;;;;5096739;28;20043;-77
2023/12/16 02:03:21;;;;;;;11.10;1.40;;;;;;;;;;5096754;28;20050;-77
2023/12/16 02:05:47;;;;;;;12.98;1.88;;;;;;;;;;5079764;28;20055;-77
2023/12/16 02:08:13;;;;;;;13.00;2.60;;;;;;;;;;5096713;28;20047;-77
2023/12/16 02:10:39;;;;;;;10.75;1.48;;;;;;;;;;5096857;28;20078;-78
2023/12/16 02:13:05;;;;;;;10.07;1.48;;;;;;;;;;5096516;28;20051;-77
2023/12/16 02:15:32;;;;;;;12.05;2.00;;;;;;;;;;5096560;28;20055;-77
2023/12/16 02:17:58;;;;;;;9.63;1.88;;;;;;;;;;5096544;28;20055;-77
2023/12/16 02:20:24;;;;;;;11.65;2.00;;;;;;;;;;5096476;28;20079;-77
2023/12/16 02:22:51;;;;;;;11.18;2.20;;;;;;;;;;5096467;28;20108;-77
2023/12/16 02:25:17;;;;;;;8.50;2.00;;;;;;;;;;5114384;28;20056;-77
2023/12/16 02:27:44;;;;;;;12.32;1.45;;;;;;;;;;5096052;28;20047;-77
2023/12/16 02:30:10;;;;;;;9.55;2.22;;;;;;;;;;5096616;28;20089;-77
2023/12/16 02:32:36;;;;;;;12.73;2.45;;;;;;;;;;5096088;28;20449;-77
2023/12/16 02:35:02;;;;;;;15.52;2.42;;;;;;;;;;5097124;28;20063;-77
2023/12/16 02:37:29;;;;;;;11.70;1.70;;;;;;;;;;5096573;28;20379;-77
2023/12/16 02:39:55;;;;;;;10.13;1.63;;;;;;;;;;5095698;28;20051;-77
2023/12/16 02:42:22;;;;;;;8.27;1.80;;;;;;;;;;5114096;28;20055;-77
2023/12/16 02:44:48;;;;;;;12.68;2.00;;;;;;;;;;5079233;28;20144;-78
2023/12/16 02:47:14;;;;;;;15.55;2.38;;;;;;;;;;5097018;28;20148;-77
2023/12/16 02:49:40;;;;;;;14.02;2.10;;;;;;;;;;5096147;28;20059;-77
2023/12/16 02:52:06;;;;;;;11.25;1.88;;;;;;;;;;5095698;28;20407;-77
2023/12/16 02:54:33;;;;;;;8.77;1.70;;;;;;;;;;5096170;28;20043;-77
2023/12/16 02:56:59;;;;;;;11.55;2.10;;;;;;;;;;5096017;28;20044;-77
2023/12/16 02:59:25;;;;;;;12.00;2.33;;;;;;;;;;5096044;28;20051;-77
2023/12/16 03:01:51;;;;;;;11.82;2.13;;;;;;;;;;5096082;28;20399;-77
2023/12/16 03:04:17;;;;;;;10.35;1.50;;;;;;;;;;5095962;28;20052;-77
2023/12/16 03:06:43;;;;;;;6.75;1.48;;;;;;;;;;5095873;28;20048;-77
2023/12/16 03:09:10;;;;;;;12.20;1.77;;;;;;;;;;5095835;28;20086;-77
2023/12/16 03:11:36;;;;;;;9.75;2.05;;;;;;;;;;5095713;28;20135;-77
2023/12/16 03:14:02;;;;;;;12.55;2.22;;;;;;;;;;5095759;28;20055;-77
2023/12/16 03:16:28;;;;;;;14.20;2.45;;;;;;;;;;5095707;28;20039;-77
2023/12/16 03:18:54;;;;;;;10.77;2.45;;;;;;;;;;5079189;28;20095;-77
2023/12/16 03:21:20;;;;;;;14.07;2.38;;;;;;;;;;5095810;28;20051;-77
2023/12/16 03:23:46;;;;;;;11.30;2.60;;;;;;;;;;5095799;28;20044;-77
2023/12/16 03:26:12;;;;;;;13.27;2.90;;;;;;;;;;5078899;28;20053;-77
2023/12/16 03:28:38;;;;;;;11.02;1.90;;;;;;;;;;5096064;28;20052;-77
2023/12/16 03:31:04;;;;;;;11.38;2.75;;;;;;;;;;5095683;28;20047;-77
2023/12/16 03:33:30;;;;;;;16.30;2.65;;;;;;;;;;5079791;28;20120;-77
2023/12/16 03:35:56;;;;;;;14.85;3.03;;;;;;;;;;5095697;28;20386;-77
2023/12/16 03:38:22;;;;;;;10.35;2.55;;;;;;;;;;5096500;28;20063;-77
2023/12/16 03:40:48;;;;;;;11.70;2.67;;;;;;;;;;5096506;28;20112;-77
2023/12/16 03:43:16;;;;;;;9.75;2.00;;;;;;;;;;5096418;28;20044;-77
2023/12/16 03:45:42;;;;;;;12.35;2.45;;;;;;;;;;5078963;28;20048;-77
2023/12/16 03:48:08;;;;;;;14.90;2.22;;;;;;;;;;5095865;28;20059;-77
2023/12/16 03:50:34;;;;;;;11.32;2.78;;;;;;;;;;5078836;28;20096;-77
2023/12/16 03:53:00;;;;;;;13.60;2.17;;;;;;;;;;5081639;28;20058;-77
2023/12/16 03:55:26;;;;;;;14.48;2.50;;;;;;;;;;5117199;28;20047;-77
2023/12/16 03:57:52;;;;;;;17.45;3.05;;;;;;;;;;5082911;28;20475;-77
2023/12/16 04:00:18;;;;;;;12.27;2.50;;;;;;;;;;5099120;28;20536;-77
2023/12/16 04:02:44;;;;;;;9.38;1.67;;;;;;;;;;5082231;28;20112;-77
2023/12/16 04:05:10;;;;;;;12.25;1.98;;;;;;;;;;5098949;28;20040;-77
2023/12/16 04:07:37;;;;;;;11.77;2.25;;;;;;;;;;5099204;28;20441;-77
2023/12/16 04:10:03;;;;;;;13.30;2.42;;;;;;;;;;5098957;28;20395;-77
2023/12/16 04:12:29;;;;;;;19.55;2.55;;;;;;;;;;5099395;28;20380;-77
2023/12/16 04:14:55;;;;;;;13.18;2.08;;;;;;;;;;5098801;28;20053;-77
2023/12/16 04:17:22;;;;;;;15.00;1.80;;;;;;;;;;5099581;28;20051;-78
2023/12/16 04:19:51;;;;;;;13.77;2.17;;;;;;;;;;5098403;28;20051;-77
2023/12/16 04:22:17;;;;;;;15.43;2.65;;;;;;;;;;5098732;28;20135;-77
2023/12/16 04:24:43;;;;;;;14.60;2.13;;;;;;;;;;5098563;28;20467;-77
2023/12/16 04:27:10;;;;;;;12.68;1.98;;;;;;;;;;5099384;28;20048;-77
2023/12/16 04:29:36;;;;;;;15.52;2.67;;;;;;;;;;5081921;28;20051;-77
2023/12/16 04:32:02;;;;;;;13.30;2.38;;;;;;;;;;5098603;28;20130;-77
2023/12/16 04:34:28;;;;;;;15.15;2.47;;;;;;;;;;5081612;28;20048;-77
2023/12/16 04:36:54;;;;;;;13.68;2.35;;;;;;;;;;5081821;28;20043;-77
2023/12/16 04:39:20;;;;;;;10.25;2.03;;;;;;;;;;5098314;28;20051;-77
2023/12/16 04:41:46;;;;;;;11.00;2.15;;;;;;;;;;5098248;28;20491;-77
2023/12/16 04:44:12;;;;;;;14.02;2.45;;;;;;;;;;5098228;28;20134;-77
2023/12/16 04:46:38;;;;;;;17.05;2.92;;;;;;;;;;5098209;28;20039;-77
2023/12/16 04:49:04;;;;;;;11.82;2.35;;;;;;;;;;5097817;28;20048;-77
2023/12/16 04:51:30;;;;;;;18.27;2.58;;;;;;;;;;5097765;28;20063;-77
2023/12/16 04:53:57;;;;;;;10.82;2.42;;;;;;;;;;5097947;28;20396;-77
2023/12/16 04:56:23;;;;;;;14.05;2.50;;;;;;;;;;5081515;28;20058;-76
2023/12/16 04:58:49;;;;;;;12.00;2.22;;;;;;;;;;5081093;28;20063;-76
2023/12/16 05:01:16;;;;;;;14.60;2.80;;;;;;;;;;5081328;28;20051;-76
2023/12/16 05:03:42;;;;;;;13.50;2.67;;;;;;;;;;5097803;28;20047;-77
2023/12/16 05:06:08;;;;;;;13.35;2.10;;;;;;;;;;5098081;28;20039;-77
2023/12/16 05:08:35;;;;;;;13.25;2.85;;;;;;;;;;5116060;28;20051;-76
2023/12/16 05:11:01;;;;;;;14.80;2.85;;;;;;;;;;5097590;28;20055;-76
2023/12/16 05:13:27;;;;;;;13.38;3.13;;;;;;;;;;5097562;28;20050;-76
2023/12/16 05:15:53;;;;;;;11.48;2.60;;;;;;;;;;5097606;28;20055;-76
2023/12/16 05:18:19;;;;;;;15.00;2.90;;;;;;;;;;5115184;28;20471;-77
2023/12/16 05:20:45;;;;;;;10.73;2.97;;;;;;;;;;5097513;28;20395;-76
2023/12/16 05:23:11;;;;;;;17.88;3.13;;;;;;;;;;5097875;28;20039;-77
2023/12/16 05:25:39;;;;;;;16.10;3.15;;;;;;;;;;5097061;28;20448;-78
2023/12/16 05:28:05;;;;;;;15.10;3.40;;;;;;;;;;5081640;28;20083;-76
2023/12/16 05:30:32;;;;;;;13.48;3.92;;;;;;;;;;5115309;28;20050;-77
2023/12/16 05:32:58;;;;;;;11.88;3.30;;;;;;;;;;5080394;28;20040;-76
2023/12/16 05:35:24;;;;;;;15.00;3.63;;;;;;;;;;5097513;28;20095;-76
2023/12/16 05:37:50;;;;;;;19.73;4.13;;;;;;;;;;5097185;28;20036;-77
2023/12/16 05:40:16;;;;;;;21.15;4.00;;;;;;;;;;5080212;28;20491;-76
2023/12/16 05:42:42;;;;;;;18.42;3.55;;;;;;;;;;5096972;28;20138;-76
2023/12/16 05:45:08;;;;;;;17.33;4.28;;;;;;;;;;5080133;28;20053;-77
2023/12/16 05:47:35;;;;;;;26.20;4.88;;;;;;;;;;5097243;28;20048;-77
2023/12/16 05:50:02;;;;;;;15.82;4.03;;;;;;;;;;5114925;28;20117;-76
2023/12/16 05:52:28;;;;;;;14.93;3.58;;;;;;;;;;5096404;28;20091;-76
2023/12/16 05:54:54;;;;;;;16.25;3.53;;;;;;;;;;5096824;28;20116;-76
2023/12/16 05:57:20;;;;;;;20.95;3.97;;;;;;;;;;5096850;28;20054;-76
2023/12/16 05:59:46;;;;;;;14.88;3.80;;;;;;;;;;5097607;28;20050;-76
2023/12/16 06:02:12;;;;;;;15.35;3.70;;;;;;;;;;5096741;28;20051;-77
2023/12/16 06:04:38;;;;;;;14.80;4.30;;;;;;;;;;5079871;28;20052;-76
2023/12/16 06:07:04;;;;;;;17.45;4.05;;;;;;;;;;5096366;28;20498;-76
2023/12/16 06:09:31;;;;;;;13.95;3.72;;;;;;;;;;5096516;28;20050;-76
2023/12/16 06:11:57;;;;;;;17.70;4.18;;;;;;;;;;5079775;28;20035;-75
2023/12/16 06:14:23;;;;;;;14.65;4.22;;;;;;;;;;5096324;28;20047;-76
2023/12/16 06:16:50;;;;;;;16.80;4.75;;;;;;;;;;5080305;28;20047;-77
2023/12/16 06:19:16;;;;;;;23.10;4.70;;;;;;;;;;5096275;28;20050;-77
2023/12/16 06:21:42;;;;;;;16.15;4.20;;;;;;;;;;5096441;28;20048;-76
2023/12/16 06:24:10;;;;;;;23.23;5.07;;;;;;;;;;5096393;28;20046;-76
2023/12/16 06:26:36;;;;;;;17.30;4.60;;;;;;;;;;5079296;28;20087;-76
2023/12/16 06:29:02;;;;;;;15.38;4.60;;;;;;;;;;5096403;28;20053;-77
2023/12/16 06:31:28;;;;;;;25.75;6.40;;;;;;;;;;5096997;28;20043;-76
2023/12/16 06:33:54;;;;;;;22.33;5.25;;;;;;;;;;5113949;28;20479;-76
2023/12/16 06:36:20;;;;;;;22.52;4.47;;;;;;;;;;5096267;28;20043;-76
2023/12/16 06:38:46;;;;;;;17.92;4.85;;;;;;;;;;5079449;28;20058;-76
2023/12/16 06:41:12;;;;;;;23.38;5.80;;;;;;;;;;5114098;28;20083;-76
2023/12/16 06:43:38;;;;;;;21.42;5.22;;;;;;;;;;5079301;28;20047;-77
2023/12/16 06:46:06;;;;;;;22.50;4.88;;;;;;;;;;5079463;28;20079;-76
2023/12/16 06:48:32;;;;;;;18.17;5.20;;;;;;;;;;5096597;28;20391;-77
2023/12/16 06:50:59;;;;;;;16.27;4.63;;;;;;;;;;5096861;28;20093;-76
2023/12/16 06:53:25;;;;;;;21.20;5.03;;;;;;;;;;5095405;28;20393;-76
2023/12/16 06:55:53;;;;;;;20.77;5.28;;;;;;;;;;5096027;28;20066;-76
2023/12/16 06:58:20;;;;;;;17.95;5.32;;;;;;;;;;5096034;28;20407;-76
2023/12/16 07:00:46;;;;;;;16.80;5.22;;;;;;;;;;5095999;28;20040;-76
2023/12/16 07:03:12;;;;;;;20.60;5.38;;;;;;;;;;5079173;28;20057;-76
2023/12/16 07:05:38;;;;;;;21.20;5.32;;;;;;;;;;5079209;28;20395;-76
2023/12/16 07:08:04;;;;;;;23.63;5.65;;;;;;;;;;5113756;28;20047;-76
2023/12/16 07:10:30;;;;;;;25.02;5.97;;;;;;;;;;5096729;28;20047;-75
2023/12/16 07:12:56;;;;;;;24.25;6.22;;;;;;;;;;5095754;28;20381;-75
2023/12/16 07:15:22;;;;;;;21.83;6.32;;;;;;;;;;5096752;28;20087;-75
2023/12/16 07:17:49;;;;;;;21.55;6.78;;;;;;;;;;5096083;28;20052;-76
2023/12/16 07:20:15;;;;;;;17.17;6.07;;;;;;;;;;5095855;28;20449;-76
2023/12/16 07:22:42;;;;;;;18.92;5.60;;;;;;;;;;5113756;28;20039;-76
2023/12/16 07:25:08;;;;;;;21.48;6.80;;;;;;;;;;5095778;28;20506;-76
2023/12/16 07:27:34;;;;;;;25.60;6.72;;;;;;;;;;5098702;28;20491;-76
2023/12/16 07:30:00;;;;;;;24.10;7.07;;;;;;;;;;5099670;28;20134;-76
2023/12/16 07:32:27;;;;;;;22.92;7.15;;;;;;;;;;5117451;28;20475;-76
2023/12/16 07:34:53;;;;;;;19.25;6.65;;;;;;;;;;5099624;28;20060;-76
2023/12/16 07:37:20;;;;;;;18.17;7.15;;;;;;;;;;5099585;28;20042;-76
2023/12/16 07:39:46;;;;;;;23.30;7.53;;;;;;;;;;5117792;28;20419;-77
2023/12/16 07:42:13;;;;;;;23.08;7.55;;;;;;;;;;5099422;28;20066;-77
2023/12/16 07:44:39;;;;;;;27.25;7.90;;;;;;;;;;5099471;28;20054;-77
2023/12/16 07:47:05;;;;;;;26.48;6.85;;;;;;;;;;5099394;28;20039;-77
2023/12/16 07:49:31;;;;;;;27.77;8.25;;;;;;;;;;5099144;28;20044;-78
2023/12/16 07:51:57;;;;;;;17.20;6.80;;;;;;;;;;5095041;28;20541;-77
2023/12/16 07:54:24;;;;;;;25.10;8.57;;;;;;;;;;5095840;28;20472;-77
2023/12/16 07:56:50;;;;;;;21.15;7.65;;;;;;;;;;5096493;28;20487;-77
2023/12/16 07:59:17;;;;;;;22.20;8.23;;;;;;;;;;5095471;28;20051;-76
2023/12/16 08:01:43;;;;;;;21.73;8.40;;;;;;;;;;5095687;28;20052;-77
2023/12/16 08:04:09;;;;;;;18.65;7.28;;;;;;;;;;5096629;28;20044;-77
2023/12/16 08:06:35;;;;;;;24.50;8.50;;;;;;;;;;5078641;28;20052;-77
2023/12/16 08:09:01;;;;;;;20.75;7.80;;;;;;;;;;5096311;28;20044;-77
2023/12/16 08:11:27;;;;;;;33.78;9.07;;;;;;;;;;5095302;28;20040;-77
2023/12/16 08:13:53;;;;;;;25.45;8.75;;;;;;;;;;5078544;28;20048;-76
2023/12/16 08:16:19;;;;;;;24.17;8.90;;;;;;;;;;5062084;28;20048;-77
2023/12/16 08:18:45;;;;;;;21.17;8.13;;;;;;;;;;5095447;28;20044;-76
2023/12/16 08:21:11;;;;;;;24.60;7.47;;;;;;;;;;5078443;28;20102;-77
2023/12/16 08:23:37;;;;;;;21.98;8.02;;;;;;;;;;5095545;28;20048;-77
2023/12/16 08:26:08;;;;;;;26.80;8.70;;;;;;;;;;5078373;28;20048;-77
2023/12/16 08:28:37;;;;;;;23.67;8.23;;;;;;;;;;5096013;28;20044;-77
2023/12/16 08:31:03;;;;;;;20.63;7.88;;;;;;;;;;5095012;28;20099;-77
2023/12/16 08:33:29;;;;;;;27.95;8.82;;;;;;;;;;5095031;28;20048;-77
2023/12/16 08:35:56;;;;;;;26.17;8.73;;;;;;;;;;5095051;28;20135;-77
2023/12/16 08:38:22;;;;;;;22.33;8.50;;;;;;;;;;5094606;28;20063;-77
2023/12/16 08:40:49;;;;;;;27.25;8.18;;;;;;;;;;5078060;28;20090;-77
2023/12/16 08:43:16;;;;;;;28.15;8.60;;;;;;;;;;5078721;28;20047;-77
2023/12/16 08:45:42;;;;;;;22.63;8.25;;;;;;;;;;5078291;28;20048;-77
2023/12/16 08:48:08;;;;;;;21.95;7.68;;;;;;;;;;5094768;28;20400;-77
2023/12/16 08:50:34;;;;;;;25.70;8.45;;;;;;;;;;5095803;28;20196;-77
2023/12/16 08:53:00;;;;;;;24.27;8.07;;;;;;;;;;5109106;28;20056;-77
2023/12/16 08:55:27;;;;;;;19.30;7.30;;;;;;;;;;5116573;28;20391;-76
2023/12/16 08:57:53;;;;;;;25.70;8.93;;;;;;;;;;5097917;28;20043;-77
2023/12/16 09:00:20;;;;;;;25.52;8.40;;;;;;;;;;5098738;28;20456;-76
2023/12/16 09:02:46;;;;;;;23.83;7.88;;;;;;;;;;5097833;28;20398;-76
2023/12/16 09:05:12;;;;;;;24.10;7.78;;;;;;;;;;5098693;28;20070;-76
2023/12/16 09:07:38;;;;;;;21.92;7.90;;;;;;;;;;5097726;28;20463;-76
2023/12/16 09:10:04;;;;;;;24.52;7.85;;;;;;;;;;5097702;28;20056;-76
2023/12/16 09:12:30;;;;;;;33.50;8.23;;;;;;;;;;5097386;28;20126;-76
2023/12/16 09:14:57;;;;;;;23.52;8.27;;;;;;;;;;5097611;28;20055;-76
2023/12/16 09:17:23;;;;;;;18.42;7.50;;;;;;;;;;5097530;28;20051;-76
2023/12/16 09:19:49;;;;;;;22.63;7.72;;;;;;;;;;5097586;28;20043;-76
2023/12/16 09:22:16;;;;;;;20.35;6.40;;;;;;;;;;5097563;28;20072;-76
2023/12/16 09:24:42;;;;;;;21.67;7.82;;;;;;;;;;5097483;28;20048;-76
2023/12/16 09:27:08;;;;;;;20.75;7.65;;;;;;;;;;5097377;28;20047;-77
2023/12/16 09:29:34;;;;;;;22.23;7.88;;;;;;;;;;5097419;28;20116;-77
2023/12/16 09:32:00;;;;;;;23.08;9.02;;;;;;;;;;5097167;28;20048;-77
2023/12/16 09:34:27;;;;;;;24.38;8.10;;;;;;;;;;5096760;28;20079;-76
2023/12/16 09:36:53;;;;;;;21.83;6.95;;;;;;;;;;5097226;28;20043;-77
2023/12/16 09:39:19;;;;;;;21.50;7.38;;;;;;;;;;5097228;28;20035;-76
2023/12/16 09:41:46;;;;;;;24.95;7.75;;;;;;;;;;5097053;28;20475;-78
2023/12/16 09:44:17;;;;;;;23.90;7.65;;;;;;;;;;5096867;28;20047;-77
2023/12/16 09:46:44;;;;;;;26.98;8.98;;;;;;;;;;5080393;28;20054;-76
2023/12/16 09:49:11;;;;;;;21.10;8.05;;;;;;;;;;5095939;28;20047;-76
2023/12/16 09:51:37;;;;;;;23.80;7.85;;;;;;;;;;5096703;28;20456;-76
2023/12/16 09:54:03;;;;;;;23.25;7.05;;;;;;;;;;5096749;28;20108;-76
2023/12/16 09:56:29;;;;;;;26.40;8.15;;;;;;;;;;5096782;28;20044;-76
2023/12/16 09:58:56;;;;;;;30.92;9.00;;;;;;;;;;5097041;28;20051;-76
2023/12/16 10:01:24;;;;;;;22.63;7.72;;;;;;;;;;5096814;28;20078;-76
2023/12/16 10:03:50;;;;;;;25.73;8.35;;;;;;;;;;5080031;28;20383;-76
2023/12/16 10:06:16;;;;;;;21.10;6.85;;;;;;;;;;5096687;28;20099;-76
2023/12/16 10:08:42;;;;;;;24.50;8.13;;;;;;;;;;5096711;28;20488;-76
2023/12/16 10:11:09;;;;;;;30.35;8.20;;;;;;;;;;5097413;28;20181;-76
2023/12/16 10:13:53;;;;;;;25.42;7.50;;;;;;;;;;5079874;28;20074;-76
2023/12/16 10:16:24;;;;;;;25.30;7.60;;;;;;;;;;5097478;28;20052;-76
2023/12/16 10:18:55;;;;;;;25.17;7.93;;;;;;;;;;5097406;28;20051;-76
2023/12/16 10:21:31;;;;;;;34.67;8.32;;;;;;;;;;5096819;28;20043;-77
2023/12/16 10:24:01;;;;;;;25.45;8.48;;;;;;;;;;5096502;28;20043;-77
2023/12/16 10:26:30;;;;;;;26.40;8.48;;;;;;;;;;5079519;28;20043;-76
2023/12/16 10:28:57;;;;;;;33.80;8.68;;;;;;;;;;5079411;28;20083;-76
2023/12/16 10:31:24;;;;;;;32.42;8.23;;;;;;;;;;5096816;28;20082;-77
2023/12/16 10:33:51;;;;;;;28.15;8.13;;;;;;;;;;5096120;28;20456;-77
2023/12/16 10:36:17;;;;;;;25.92;8.60;;;;;;;;;;5096111;28;20122;-77
2023/12/16 10:38:43;;;;;;;33.35;8.75;;;;;;;;;;5113824;28;20537;-77
2023/12/16 10:41:09;;;;;;;30.15;9.50;;;;;;;;;;5079241;28;20051;-78
2023/12/16 10:43:37;;;;;;;34.13;9.73;;;;;;;;;;5080194;28;20043;-77
2023/12/16 10:46:04;;;;;;;37.60;10.73;;;;;;;;;;5096732;28;20040;-77
2023/12/16 10:48:33;;;;;;;35.47;11.10;;;;;;;;;;5079335;28;20089;-77
2023/12/16 10:51:02;;;;;;;30.77;10.38;;;;;;;;;;5095960;28;20097;-77
2023/12/16 10:53:35;;;;;;;30.85;10.45;;;;;;;;;;5095862;28;20056;-77
2023/12/16 10:56:03;;;;;;;32.33;11.07;;;;;;;;;;5096925;28;20051;-77
2023/12/16 10:58:35;;;;;;;29.92;10.95;;;;;;;;;;5096040;28;20082;-77
2023/12/16 11:01:06;;;;;;;39.10;13.27;;;;;;;;;;5098514;28;20042;-77
2023/12/16 11:03:42;;;;;;;34.38;12.52;;;;;;;;;;5082975;28;20568;-77
2023/12/16 11:06:13;;;;;;;34.47;13.00;;;;;;;;;;5101016;28;20383;-77
2023/12/16 11:08:39;;;;;;;40.10;14.25;;;;;;;;;;5084130;28;20051;-77
2023/12/16 11:11:06;;;;;;;41.55;14.25;;;;;;;;;;5082711;28;20048;-77
2023/12/16 11:13:33;;;;;;;42.08;14.75;;;;;;;;;;5100727;28;20096;-76
2023/12/16 11:16:03;;;;;;;45.08;15.40;;;;;;;;;;5100834;28;20097;-77
2023/12/16 11:18:31;;;;;;;42.40;16.55;;;;;;;;;;5100279;28;20388;-77
2023/12/16 11:21:04;;;;;;;50.10;18.73;;;;;;;;;;5100797;28;20051;-77
2023/12/16 11:23:30;;;;;;;43.67;17.95;;;;;;;;;;5083901;28;20130;-77
2023/12/16 11:26:00;;;;;;;42.20;16.33;;;;;;;;;;5099880;28;20058;-77
2023/12/16 11:28:27;;;;;;;47.15;18.70;;;;;;;;;;5099737;28;20055;-76
2023/12/16 11:31:03;;;;;;;50.25;19.00;;;;;;;;;;5082520;28;20055;-76
2023/12/16 11:33:43;;;;;;;41.63;17.17;;;;;;;;;;5099681;28;20542;-77
2023/12/16 11:36:09;;;;;;;46.72;19.45;;;;;;;;;;5099627;28;20548;-78
2023/12/16 11:38:38;;;;;;;40.38;18.70;;;;;;;;;;5099503;28;20047;-77
2023/12/16 11:41:04;;;;;;;45.58;20.23;;;;;;;;;;5099652;28;20086;-78
2023/12/16 11:43:49;;;;;;;49.78;21.08;;;;;;;;;;5082052;28;20050;-78
2023/12/16 11:46:34;;;;;;;50.67;21.35;;;;;;;;;;5100197;28;20052;-77
2023/12/16 11:49:05;;;;;;;44.97;21.75;;;;;;;;;;5100133;28;20043;-76
2023/12/16 11:51:35;;;;;;;38.83;18.20;;;;;;;;;;5099252;28;20085;-77
2023/12/16 11:54:03;;;;;;;47.30;21.23;;;;;;;;;;5099442;28;20059;-77
2023/12/16 11:56:29;;;;;;;45.03;19.20;;;;;;;;;;5099161;28;20050;-77
2023/12/16 11:58:58;;;;;;;47.95;21.52;;;;;;;;;;5083199;28;20047;-76
2023/12/16 12:01:27;;;;;;;42.13;20.52;;;;;;;;;;5098850;28;20089;-76
2023/12/16 12:03:57;;;;;;;48.50;20.27;;;;;;;;;;5099089;28;20047;-76
2023/12/16 12:06:24;;;;;;;37.22;20.15;;;;;;;;;;5098905;28;20112;-76
2023/12/16 12:08:50;;;;;;;40.63;20.02;;;;;;;;;;5099063;28;20094;-76
2023/12/16 12:11:16;;;;;;;41.78;21.27;;;;;;;;;;5098675;28;20075;-76
2023/12/16 12:13:45;;;;;;;38.78;21.33;;;;;;;;;;5098013;28;20048;-77
2023/12/16 12:16:13;;;;;;;39.80;21.45;;;;;;;;;;5099642;28;20051;-76
2023/12/16 12:18:40;;;;;;;43.65;21.50;;;;;;;;;;5081846;28;20055;-76
2023/12/16 12:21:10;;;;;;;45.28;21.95;;;;;;;;;;5098722;28;20134;-76
2023/12/16 12:23:42;;;;;;;38.17;21.50;;;;;;;;;;5099437;28;20122;-77
2023/12/16 12:26:08;;;;;;;40.45;22.38;;;;;;;;;;5099462;28;20388;-76
2023/12/16 12:28:34;;;;;;;43.63;21.08;;;;;;;;;;5081761;28;20048;-76
2023/12/16 12:31:10;;;;;;;39.20;21.27;;;;;;;;;;5098751;28;20441;-76
2023/12/16 12:33:37;;;;;;;35.35;19.77;;;;;;;;;;5099352;28;20051;-76
2023/12/16 12:36:03;;;;;;;40.50;21.52;;;;;;;;;;5098415;28;20051;-76
2023/12/16 12:38:29;;;;;;;35.70;21.45;;;;;;;;;;5098343;28;20097;-76
2023/12/16 12:40:59;;;;;;;40.25;21.42;;;;;;;;;;5098064;28;20043;-76
2023/12/16 12:43:33;;;;;;;40.83;21.50;;;;;;;;;;5081684;28;20087;-76
2023/12/16 12:46:07;;;;;;;41.95;22.42;;;;;;;;;;5098215;28;20043;-76
2023/12/16 12:48:33;;;;;;;45.43;21.87;;;;;;;;;;5098191;28;20058;-76
2023/12/16 12:51:04;;;;;;;32.67;19.45;;;;;;;;;;5098174;28;20079;-76
2023/12/16 12:53:30;;;;;;;39.08;21.65;;;;;;;;;;5097291;28;20054;-76
2023/12/16 12:55:56;;;;;;;38.75;21.40;;;;;;;;;;5081999;28;20058;-77
2023/12/16 12:58:23;;;;;;;37.10;21.08;;;;;;;;;;5081972;28;20051;-76
2023/12/16 13:00:49;;;;;;;37.45;21.35;;;;;;;;;;5097877;28;20094;-77
2023/12/16 13:03:15;;;;;;;42.55;21.65;;;;;;;;;;5097739;28;20058;-77
2023/12/16 13:05:42;;;;;;;44.05;22.55;;;;;;;;;;5097617;28;20501;-77
2023/12/16 13:08:13;;;;;;;32.70;19.50;;;;;;;;;;5098582;28;20089;-77
2023/12/16 13:10:40;;;;;;;38.33;21.00;;;;;;;;;;5098594;28;20047;-77
2023/12/16 13:13:06;;;;;;;38.17;20.55;;;;;;;;;;5098144;28;20388;-77
2023/12/16 13:15:32;;;;;;;37.15;19.63;;;;;;;;;;5097646;28;20104;-76
2023/12/16 13:17:58;;;;;;;37.33;20.30;;;;;;;;;;5097669;28;20387;-77
2023/12/16 13:20:26;;;;;;;36.13;20.25;;;;;;;;;;5097575;28;20053;-77
2023/12/16 13:22:52;;;;;;;33.90;19.40;;;;;;;;;;5080904;28;20441;-77
2023/12/16 13:25:19;;;;;;;29.52;19.25;;;;;;;;;;5097223;28;20358;-78
2023/12/16 13:27:45;;;;;;;36.38;20.77;;;;;;;;;;5098213;28;20040;-77
2023/12/16 13:30:11;;;;;;;35.45;19.95;;;;;;;;;;5097401;28;20376;-77
2023/12/16 13:32:40;;;;;;;32.13;19.50;;;;;;;;;;5063560;28;20043;-78
2023/12/16 13:35:10;;;;;;;31.55;19.50;;;;;;;;;;5098026;28;20047;-77
2023/12/16 13:37:37;;;;;;;34.60;19.63;;;;;;;;;;5097260;28;20040;-76
2023/12/16 13:40:06;;;;;;;34.42;19.63;;;;;;;;;;5098009;28;20051;-76
2023/12/16 13:42:33;;;;;;;40.28;20.98;;;;;;;;;;5097007;28;20120;-76
2023/12/16 13:44:59;;;;;;;42.38;21.30;;;;;;;;;;5097148;28;20050;-76
2023/12/16 13:47:25;;;;;;;36.30;21.30;;;;;;;;;;5096788;28;20391;-76
2023/12/16 13:49:51;;;;;;;35.08;20.92;;;;;;;;;;5096958;28;20388;-77
2023/12/16 13:52:17;;;;;;;34.92;19.90;;;;;;;;;;5115340;28;20478;-77
2023/12/16 13:54:43;;;;;;;34.40;20.58;;;;;;;;;;5096583;28;20047;-77
2023/12/16 13:57:09;;;;;;;35.08;19.88;;;;;;;;;;5079747;28;20104;-78
2023/12/16 13:59:35;;;;;;;33.15;20.77;;;;;;;;;;5097162;28;20092;-78
2023/12/16 14:02:02;;;;;;;29.58;19.98;;;;;;;;;;5063268;28;20052;-78
2023/12/16 14:04:28;;;;;;;32.72;20.33;;;;;;;;;;5096684;28;20047;-77
2023/12/16 14:06:55;;;;;;;28.35;17.50;;;;;;;;;;5096596;28;20058;-77
2023/12/16 14:09:21;;;;;;;29.90;18.88;;;;;;;;;;5097381;28;20082;-77
2023/12/16 14:11:47;;;;;;;31.33;18.02;;;;;;;;;;5096528;28;20043;-76
2023/12/16 14:14:13;;;;;;;31.58;18.98;;;;;;;;;;5079676;28;20134;-77
2023/12/16 14:16:39;;;;;;;31.30;18.33;;;;;;;;;;5096817;28;20383;-76
2023/12/16 14:19:05;;;;;;;29.23;18.10;;;;;;;;;;5097096;28;20425;-78
2023/12/16 14:21:31;;;;;;;27.55;18.13;;;;;;;;;;5096419;28;20101;-78
2023/12/16 14:23:57;;;;;;;25.48;16.38;;;;;;;;;;5079504;28;20055;-77
2023/12/16 14:26:23;;;;;;;27.98;16.50;;;;;;;;;;5096427;28;20074;-77